createdAt,value
2022-08-23T00:00:54.228Z,1010.84
2022-08-23T00:01:52.568Z,1010.87
2022-08-23T00:02:53.251Z,1010.81
2022-08-23T00:03:52.564Z,1010.80
2022-08-23T00:05:07.328Z,1010.82
2022-08-23T00:05:53.527Z,1010.84
2022-08-23T00:06:52.625Z,1010.81
2022-08-23T00:07:52.484Z,1010.82
2022-08-23T00:08:52.510Z,1010.79
2022-08-23T00:09:52.511Z,1010.82
2022-08-23T00:10:52.445Z,1010.84
2022-08-23T00:11:52.489Z,1010.83
2022-08-23T00:12:52.431Z,1010.85
2022-08-23T00:13:53.093Z,1010.82
2022-08-23T00:14:52.420Z,1010.77
2022-08-23T00:15:53.060Z,1010.78
2022-08-23T00:16:52.380Z,1010.77
2022-08-23T00:17:53.342Z,1010.77
2022-08-23T00:18:52.380Z,1010.77
2022-08-23T00:19:52.349Z,1010.78
2022-08-23T00:20:52.390Z,1010.79
2022-08-23T00:21:52.366Z,1010.78
2022-08-23T00:22:52.982Z,1010.76
2022-08-23T00:23:52.973Z,1010.80
2022-08-23T00:24:52.303Z,1010.80
2022-08-23T00:25:52.299Z,1010.77
2022-08-23T00:26:52.968Z,1010.82
2022-08-23T00:27:52.282Z,1010.77
2022-08-23T00:28:52.297Z,1010.74
2022-08-23T00:29:52.297Z,1010.75
2022-08-23T00:30:52.247Z,1010.75
2022-08-23T00:31:52.890Z,1010.73
2022-08-23T00:32:52.887Z,1010.77
2022-08-23T00:33:55.663Z,1010.75
2022-08-23T00:34:52.178Z,1010.72
2022-08-23T00:35:52.835Z,1010.72
2022-08-23T00:36:52.846Z,1010.75
2022-08-23T00:38:32.262Z,1010.70
2022-08-23T00:38:53.971Z,1010.68
2022-08-23T00:39:52.165Z,1010.65
2022-08-23T00:40:52.136Z,1010.67
2022-08-23T00:41:52.177Z,1010.68
2022-08-23T00:42:52.152Z,1010.67
2022-08-23T00:43:52.090Z,1010.61
2022-08-23T00:44:52.164Z,1010.66
2022-08-23T00:45:52.080Z,1010.67
2022-08-23T00:46:52.080Z,1010.61
2022-08-23T00:47:52.175Z,1010.66
2022-08-23T00:48:52.733Z,1010.61
2022-08-23T00:49:52.701Z,1010.61
2022-08-23T00:50:52.693Z,1010.57
2022-08-23T00:51:53.240Z,1010.62
2022-08-23T00:52:51.989Z,1010.59
2022-08-23T00:53:52.657Z,1010.59
2022-08-23T00:54:52.650Z,1010.55
2022-08-23T00:55:52.634Z,1010.56
2022-08-23T00:56:57.720Z,1010.56
2022-08-23T00:57:52.627Z,1010.53
2022-08-23T00:58:51.944Z,1010.52
2022-08-23T00:59:51.934Z,1010.52
2022-08-23T01:00:53.868Z,1010.53
2022-08-23T01:01:52.675Z,1010.57
2022-08-23T01:02:52.568Z,1010.56
2022-08-23T01:04:03.978Z,1010.54
2022-08-23T01:04:52.900Z,1010.56
2022-08-23T01:05:51.906Z,1010.56
2022-08-23T01:06:52.880Z,1010.58
2022-08-23T01:07:51.867Z,1010.57
2022-08-23T01:08:52.506Z,1010.55
2022-08-23T01:09:51.901Z,1010.59
2022-08-23T01:10:51.826Z,1010.57
2022-08-23T01:11:52.467Z,1010.57
2022-08-23T01:12:51.789Z,1010.55
2022-08-23T01:13:52.444Z,1010.53
2022-08-23T01:14:52.449Z,1010.56
2022-08-23T01:15:51.789Z,1010.55
2022-08-23T01:16:51.789Z,1010.53
2022-08-23T01:17:52.399Z,1010.56
2022-08-23T01:18:52.399Z,1010.56
2022-08-23T01:19:52.396Z,1010.52
2022-08-23T01:20:51.717Z,1010.54
2022-08-23T01:21:52.360Z,1010.53
2022-08-23T01:22:51.701Z,1010.50
2022-08-23T01:23:51.732Z,1010.52
2022-08-23T01:25:06.097Z,1010.51
2022-08-23T01:25:53.563Z,1010.53
2022-08-23T01:26:52.313Z,1010.53
2022-08-23T01:27:52.299Z,1010.52
2022-08-23T01:28:52.306Z,1010.51
2022-08-23T01:29:52.274Z,1010.51
2022-08-23T01:30:52.267Z,1010.52
2022-08-23T01:31:51.584Z,1010.51
2022-08-23T01:32:51.618Z,1010.52
2022-08-23T01:33:52.351Z,1010.52
2022-08-23T01:34:52.218Z,1010.50
2022-08-23T01:35:52.224Z,1010.51
2022-08-23T01:36:51.544Z,1010.54
2022-08-23T01:37:51.500Z,1010.51
2022-08-23T01:38:51.516Z,1010.53
2022-08-23T01:39:51.533Z,1010.49
2022-08-23T01:40:52.147Z,1010.50
2022-08-23T01:41:51.494Z,1010.51
2022-08-23T01:42:51.456Z,1010.51
2022-08-23T01:43:51.459Z,1010.46
2022-08-23T01:44:51.501Z,1010.48
2022-08-23T01:45:51.447Z,1010.47
2022-08-23T01:46:53.082Z,1010.49
2022-08-23T01:47:53.838Z,1010.52
2022-08-23T01:48:51.402Z,1010.52
2022-08-23T01:49:51.382Z,1010.49
2022-08-23T01:50:52.051Z,1010.51
2022-08-23T01:51:51.412Z,1010.55
2022-08-23T01:52:51.520Z,1010.58
2022-08-23T01:53:53.321Z,1010.54
2022-08-23T01:54:51.356Z,1010.55
2022-08-23T01:55:51.341Z,1010.61
2022-08-23T01:56:51.401Z,1010.59
2022-08-23T01:57:51.323Z,1010.63
2022-08-23T01:58:51.402Z,1010.64
2022-08-23T01:59:51.263Z,1010.60
2022-08-23T02:00:51.263Z,1010.64
2022-08-23T02:01:51.364Z,1010.60
2022-08-23T02:02:51.924Z,1010.59
2022-08-23T02:03:58.897Z,1010.58
2022-08-23T02:04:52.644Z,1010.55
2022-08-23T02:06:51.208Z,1010.57
2022-08-23T02:07:52.658Z,1010.59
2022-08-23T02:08:52.179Z,1010.56
2022-08-23T02:09:51.844Z,1010.57
2022-08-23T02:10:51.816Z,1010.53
2022-08-23T02:11:51.816Z,1010.56
2022-08-23T02:12:51.138Z,1010.53
2022-08-23T02:13:51.140Z,1010.52
2022-08-23T02:14:53.546Z,1010.55
2022-08-23T02:15:51.401Z,1010.51
2022-08-23T02:16:59.984Z,1010.52
2022-08-23T02:17:52.068Z,1010.52
2022-08-23T02:18:51.098Z,1010.51
2022-08-23T02:19:51.738Z,1010.52
2022-08-23T02:20:51.720Z,1010.53
2022-08-23T02:21:51.711Z,1010.50
2022-08-23T02:22:51.650Z,1010.54
2022-08-23T02:23:53.472Z,1010.52
2022-08-23T02:24:51.684Z,1010.48
2022-08-23T02:25:51.671Z,1010.54
2022-08-23T02:26:56.830Z,1010.55
2022-08-23T02:27:52.273Z,1010.55
2022-08-23T02:28:50.973Z,1010.49
2022-08-23T02:29:52.762Z,1010.54
2022-08-23T02:30:50.940Z,1010.52
2022-08-23T02:31:51.646Z,1010.50
2022-08-23T02:32:51.604Z,1010.53
2022-08-23T02:33:50.942Z,1010.57
2022-08-23T02:35:05.399Z,1010.53
2022-08-23T02:35:51.885Z,1010.53
2022-08-23T02:36:51.549Z,1010.57
2022-08-23T02:37:51.541Z,1010.57
2022-08-23T02:38:50.836Z,1010.56
2022-08-23T02:39:50.954Z,1010.59
2022-08-23T02:40:52.926Z,1010.55
2022-08-23T02:41:52.497Z,1010.60
2022-08-23T02:42:51.499Z,1010.58
2022-08-23T02:43:53.259Z,1010.58
2022-08-23T02:44:51.466Z,1010.54
2022-08-23T02:45:51.481Z,1010.55
2022-08-23T02:46:51.440Z,1010.55
2022-08-23T02:47:50.747Z,1010.54
2022-08-23T02:48:51.418Z,1010.55
2022-08-23T02:49:51.408Z,1010.55
2022-08-23T02:50:51.405Z,1010.55
2022-08-23T02:51:51.583Z,1010.54
2022-08-23T02:52:50.700Z,1010.53
2022-08-23T02:53:51.360Z,1010.54
2022-08-23T02:54:51.372Z,1010.54
2022-08-23T02:55:51.350Z,1010.54
2022-08-23T02:56:51.339Z,1010.56
2022-08-23T02:57:51.325Z,1010.57
2022-08-23T02:58:54.055Z,1010.60
2022-08-23T02:59:51.332Z,1010.58
2022-08-23T03:00:50.606Z,1010.60
2022-08-23T03:01:50.602Z,1010.67
2022-08-23T03:02:52.041Z,1010.62
2022-08-23T03:03:51.263Z,1010.62
2022-08-23T03:04:51.253Z,1010.62
2022-08-23T03:05:50.552Z,1010.58
2022-08-23T03:06:51.222Z,1010.60
2022-08-23T03:07:51.214Z,1010.61
2022-08-23T03:08:50.523Z,1010.62
2022-08-23T03:09:51.274Z,1010.58
2022-08-23T03:10:52.328Z,1010.62
2022-08-23T03:11:51.174Z,1010.56
2022-08-23T03:12:51.215Z,1010.57
2022-08-23T03:13:54.087Z,1010.55
2022-08-23T03:14:50.484Z,1010.58
2022-08-23T03:15:50.496Z,1010.59
2022-08-23T03:16:50.456Z,1010.61
2022-08-23T03:17:50.420Z,1010.62
2022-08-23T03:18:50.448Z,1010.58
2022-08-23T03:19:51.085Z,1010.60
2022-08-23T03:20:50.398Z,1010.65
2022-08-23T03:21:50.438Z,1010.61
2022-08-23T03:22:54.552Z,1010.62
2022-08-23T03:23:51.039Z,1010.66
2022-08-23T03:24:51.029Z,1010.57
2022-08-23T03:25:50.329Z,1010.60
2022-08-23T03:26:51.008Z,1010.58
2022-08-23T03:27:51.079Z,1010.56
2022-08-23T03:28:50.990Z,1010.60
2022-08-23T03:29:51.712Z,1010.58
2022-08-23T03:30:50.960Z,1010.59
2022-08-23T03:31:50.274Z,1010.63
2022-08-23T03:32:50.289Z,1010.62
2022-08-23T03:33:50.961Z,1010.64
2022-08-23T03:34:50.310Z,1010.64
2022-08-23T03:35:50.912Z,1010.64
2022-08-23T03:36:50.900Z,1010.65
2022-08-23T03:37:55.045Z,1010.66
2022-08-23T03:38:50.899Z,1010.64
2022-08-23T03:39:50.252Z,1010.65
2022-08-23T03:40:50.166Z,1010.63
2022-08-23T03:41:50.843Z,1010.67
2022-08-23T03:42:50.156Z,1010.62
2022-08-23T03:43:50.820Z,1010.65
2022-08-23T03:44:51.063Z,1010.66
2022-08-23T03:45:52.606Z,1010.69
2022-08-23T03:46:50.786Z,1010.69
2022-08-23T03:47:50.087Z,1010.71
2022-08-23T03:48:50.098Z,1010.69
2022-08-23T03:49:50.766Z,1010.67
2022-08-23T03:50:50.745Z,1010.69
2022-08-23T03:51:50.727Z,1010.73
2022-08-23T03:52:50.037Z,1010.66
2022-08-23T03:53:50.717Z,1010.68
2022-08-23T03:54:50.048Z,1010.69
2022-08-23T03:55:50.704Z,1010.66
2022-08-23T03:56:50.679Z,1010.66
2022-08-23T03:57:50.667Z,1010.69
2022-08-23T03:58:52.639Z,1010.66
2022-08-23T03:59:53.249Z,1010.66
2022-08-23T04:00:56.582Z,1010.70
2022-08-23T04:01:50.682Z,1010.69
2022-08-23T04:02:49.941Z,1010.70
2022-08-23T04:03:50.820Z,1010.71
2022-08-23T04:04:53.890Z,1010.70
2022-08-23T04:05:51.752Z,1010.73
2022-08-23T04:06:50.051Z,1010.72
2022-08-23T04:07:51.164Z,1010.75
2022-08-23T04:08:50.551Z,1010.73
2022-08-23T04:09:54.861Z,1010.75
2022-08-23T04:10:49.845Z,1010.83
2022-08-23T04:11:50.155Z,1010.77
2022-08-23T04:12:49.859Z,1010.79
2022-08-23T04:13:50.757Z,1010.82
2022-08-23T04:14:49.813Z,1010.81
2022-08-23T04:15:49.867Z,1010.80
2022-08-23T04:16:50.464Z,1010.84
2022-08-23T04:17:49.848Z,1010.86
2022-08-23T04:18:49.797Z,1010.80
2022-08-23T04:19:50.456Z,1010.87
2022-08-23T04:20:49.761Z,1010.85
2022-08-23T04:21:49.815Z,1010.82
2022-08-23T04:22:50.406Z,1010.82
2022-08-23T04:23:50.394Z,1010.83
2022-08-23T04:24:49.739Z,1010.87
2022-08-23T04:25:49.707Z,1010.84
2022-08-23T04:26:50.357Z,1010.86
2022-08-23T04:27:49.758Z,1010.87
2022-08-23T04:28:50.533Z,1010.88
2022-08-23T04:29:50.318Z,1010.83
2022-08-23T04:30:49.679Z,1010.86
2022-08-23T04:31:50.308Z,1010.89
2022-08-23T04:32:49.635Z,1010.90
2022-08-23T04:33:50.916Z,1010.90
2022-08-23T04:34:51.342Z,1010.93
2022-08-23T04:35:49.594Z,1010.94
2022-08-23T04:36:51.853Z,1010.97
2022-08-23T04:37:51.230Z,1010.99
2022-08-23T04:38:50.228Z,1011.04
2022-08-23T04:39:51.872Z,1011.02
2022-08-23T04:40:50.211Z,1011.04
2022-08-23T04:41:50.219Z,1011.05
2022-08-23T04:42:50.190Z,1011.07
2022-08-23T04:43:50.174Z,1011.09
2022-08-23T04:44:50.162Z,1011.05
2022-08-23T04:45:50.153Z,1011.07
2022-08-23T04:46:49.464Z,1011.07
2022-08-23T04:47:50.146Z,1011.07
2022-08-23T04:48:50.124Z,1011.04
2022-08-23T04:49:50.373Z,1011.07
2022-08-23T04:50:49.417Z,1011.07
2022-08-23T04:51:53.429Z,1011.09
2022-08-23T04:52:49.437Z,1011.09
2022-08-23T04:53:50.067Z,1011.11
2022-08-23T04:54:50.059Z,1011.15
2022-08-23T04:55:50.046Z,1011.13
2022-08-23T04:56:51.873Z,1011.12
2022-08-23T04:57:50.021Z,1011.14
2022-08-23T04:58:50.032Z,1011.10
2022-08-23T04:59:49.358Z,1011.11
2022-08-23T05:00:51.511Z,1011.15
2022-08-23T05:01:49.353Z,1011.15
2022-08-23T05:02:49.299Z,1011.16
2022-08-23T05:03:49.321Z,1011.14
2022-08-23T05:04:49.318Z,1011.16
2022-08-23T05:05:49.298Z,1011.17
2022-08-23T05:06:49.939Z,1011.16
2022-08-23T05:07:51.679Z,1011.15
2022-08-23T05:08:49.226Z,1011.17
2022-08-23T05:09:49.259Z,1011.16
2022-08-23T05:10:49.890Z,1011.17
2022-08-23T05:11:49.880Z,1011.18
2022-08-23T05:12:49.878Z,1011.22
2022-08-23T05:13:49.223Z,1011.21
2022-08-23T05:14:51.106Z,1011.21
2022-08-23T05:15:49.217Z,1011.21
2022-08-23T05:16:49.132Z,1011.21
2022-08-23T05:17:49.812Z,1011.21
2022-08-23T05:18:49.804Z,1011.27
2022-08-23T05:19:49.793Z,1011.26
2022-08-23T05:20:49.787Z,1011.29
2022-08-23T05:21:49.126Z,1011.29
2022-08-23T05:22:49.066Z,1011.33
2022-08-23T05:23:51.067Z,1011.33
2022-08-23T05:24:52.025Z,1011.37
2022-08-23T05:25:51.604Z,1011.35
2022-08-23T05:26:49.037Z,1011.35
2022-08-23T05:27:49.095Z,1011.36
2022-08-23T05:28:49.712Z,1011.40
2022-08-23T05:29:49.006Z,1011.42
2022-08-23T05:30:56.367Z,1011.44
2022-08-23T05:31:50.896Z,1011.46
2022-08-23T05:32:49.661Z,1011.43
2022-08-23T05:33:48.988Z,1011.45
2022-08-23T05:34:49.640Z,1011.48
2022-08-23T05:35:48.947Z,1011.48
2022-08-23T05:36:56.033Z,1011.53
2022-08-23T05:37:49.916Z,1011.46
2022-08-23T05:38:48.909Z,1011.48
2022-08-23T05:39:48.929Z,1011.54
2022-08-23T05:40:49.560Z,1011.53
2022-08-23T05:41:49.901Z,1011.60
2022-08-23T05:42:49.553Z,1011.59
2022-08-23T05:43:49.535Z,1011.64
2022-08-23T05:44:49.533Z,1011.70
2022-08-23T05:45:48.890Z,1011.71
2022-08-23T05:46:49.502Z,1011.67
2022-08-23T05:47:49.828Z,1011.74
2022-08-23T05:48:48.801Z,1011.74
2022-08-23T05:49:48.793Z,1011.73
2022-08-23T05:50:49.462Z,1011.75
2022-08-23T05:51:51.714Z,1011.79
2022-08-23T05:52:51.188Z,1011.78
2022-08-23T05:53:50.692Z,1011.79
2022-08-23T05:54:48.724Z,1011.84
2022-08-23T05:55:49.402Z,1011.83
2022-08-23T05:56:49.392Z,1011.85
2022-08-23T05:57:50.674Z,1011.81
2022-08-23T05:58:48.693Z,1011.83
2022-08-23T05:59:49.366Z,1011.81
2022-08-23T06:00:48.703Z,1011.84
2022-08-23T06:01:50.243Z,1011.85
2022-08-23T06:02:49.330Z,1011.85
2022-08-23T06:03:49.327Z,1011.84
2022-08-23T06:04:48.702Z,1011.84
2022-08-23T06:05:48.627Z,1011.82
2022-08-23T06:06:48.654Z,1011.87
2022-08-23T06:07:49.389Z,1011.88
2022-08-23T06:08:49.269Z,1011.91
2022-08-23T06:09:48.611Z,1011.88
2022-08-23T06:10:48.568Z,1011.93
2022-08-23T06:11:48.567Z,1011.89
2022-08-23T06:12:48.560Z,1011.92
2022-08-23T06:13:49.236Z,1011.99
2022-08-23T06:14:49.204Z,1011.95
2022-08-23T06:15:49.529Z,1012.00
2022-08-23T06:16:52.523Z,1012.01
2022-08-23T06:17:48.470Z,1012.02
2022-08-23T06:18:49.176Z,1012.02
2022-08-23T06:19:49.151Z,1012.04
2022-08-23T06:20:49.220Z,1012.04
2022-08-23T06:21:49.162Z,1012.10
2022-08-23T06:22:50.875Z,1012.06
2022-08-23T06:23:49.105Z,1012.05
2022-08-23T06:24:48.447Z,1012.04
2022-08-23T06:25:49.082Z,1012.06
2022-08-23T06:26:49.076Z,1012.11
2022-08-23T06:27:49.069Z,1012.13
2022-08-23T06:28:50.939Z,1012.14
2022-08-23T06:29:49.036Z,1012.17
2022-08-23T06:30:48.428Z,1012.17
2022-08-23T06:31:48.376Z,1012.18
2022-08-23T06:32:48.373Z,1012.18
2022-08-23T06:33:48.501Z,1012.16
2022-08-23T06:34:48.303Z,1012.13
2022-08-23T06:35:48.314Z,1012.18
2022-08-23T06:36:48.978Z,1012.22
2022-08-23T06:37:48.972Z,1012.21
2022-08-23T06:38:48.955Z,1012.25
2022-08-23T06:39:48.946Z,1012.26
2022-08-23T06:40:48.937Z,1012.25
2022-08-23T06:41:48.240Z,1012.24
2022-08-23T06:42:48.902Z,1012.25
2022-08-23T06:43:48.925Z,1012.27
2022-08-23T06:44:48.221Z,1012.28
2022-08-23T06:45:58.288Z,1012.16
2022-08-23T06:46:49.249Z,1012.21
2022-08-23T06:47:48.174Z,1012.19
2022-08-23T06:48:48.853Z,1012.30
2022-08-23T06:49:55.403Z,1012.24
2022-08-23T06:50:50.625Z,1012.30
2022-08-23T06:51:48.814Z,1012.28
2022-08-23T06:52:48.804Z,1012.29
2022-08-23T06:53:48.105Z,1012.32
2022-08-23T06:54:48.793Z,1012.29
2022-08-23T06:55:48.776Z,1012.28
2022-08-23T06:56:50.078Z,1012.28
2022-08-23T06:57:48.762Z,1012.32
2022-08-23T06:58:48.058Z,1012.30
2022-08-23T06:59:48.065Z,1012.28
2022-08-23T07:00:48.068Z,1012.27
2022-08-23T07:01:48.783Z,1012.32
2022-08-23T07:02:50.146Z,1012.28
2022-08-23T07:03:48.688Z,1012.33
2022-08-23T07:04:48.689Z,1012.30
2022-08-23T07:05:48.032Z,1012.36
2022-08-23T07:06:47.969Z,1012.32
2022-08-23T07:07:47.967Z,1012.36
2022-08-23T07:08:50.418Z,1012.35
2022-08-23T07:09:47.941Z,1012.35
2022-08-23T07:10:47.966Z,1012.36
2022-08-23T07:11:47.961Z,1012.38
2022-08-23T07:12:48.593Z,1012.37
2022-08-23T07:13:47.916Z,1012.40
2022-08-23T07:14:48.566Z,1012.39
2022-08-23T07:15:50.163Z,1012.45
2022-08-23T07:16:47.864Z,1012.42
2022-08-23T07:17:48.540Z,1012.45
2022-08-23T07:18:48.526Z,1012.43
2022-08-23T07:19:47.835Z,1012.42
2022-08-23T07:20:48.507Z,1012.44
2022-08-23T07:21:49.757Z,1012.46
2022-08-23T07:22:48.577Z,1012.49
2022-08-23T07:23:48.477Z,1012.44
2022-08-23T07:24:48.466Z,1012.49
2022-08-23T07:25:48.458Z,1012.48
2022-08-23T07:26:48.438Z,1012.49
2022-08-23T07:27:47.768Z,1012.47
2022-08-23T07:28:47.776Z,1012.47
2022-08-23T07:29:47.760Z,1012.54
2022-08-23T07:30:48.410Z,1012.55
2022-08-23T07:31:47.813Z,1012.48
2022-08-23T07:32:48.391Z,1012.44
2022-08-23T07:33:47.702Z,1012.44
2022-08-23T07:34:48.515Z,1012.48
2022-08-23T07:35:48.354Z,1012.45
2022-08-23T07:36:47.669Z,1012.46
2022-08-23T07:37:48.334Z,1012.47
2022-08-23T07:38:47.741Z,1012.51
2022-08-23T07:39:48.368Z,1012.49
2022-08-23T07:40:47.623Z,1012.44
2022-08-23T07:41:50.540Z,1012.49
2022-08-23T07:42:48.283Z,1012.46
2022-08-23T07:43:48.319Z,1012.44
2022-08-23T07:44:47.615Z,1012.49
2022-08-23T07:45:48.260Z,1012.53
2022-08-23T07:46:47.612Z,1012.52
2022-08-23T07:47:50.475Z,1012.55
2022-08-23T07:48:55.207Z,1012.59
2022-08-23T07:49:48.569Z,1012.55
2022-08-23T07:50:54.761Z,1012.61
2022-08-23T07:51:48.510Z,1012.63
2022-08-23T07:52:48.179Z,1012.65
2022-08-23T07:53:47.505Z,1012.62
2022-08-23T07:54:49.411Z,1012.65
2022-08-23T07:55:47.511Z,1012.66
2022-08-23T07:56:48.150Z,1012.67
2022-08-23T07:57:48.130Z,1012.69
2022-08-23T07:58:48.156Z,1012.64
2022-08-23T07:59:47.450Z,1012.68
2022-08-23T08:00:47.418Z,1012.67
2022-08-23T08:01:47.496Z,1012.72
2022-08-23T08:02:47.462Z,1012.76
2022-08-23T08:03:47.395Z,1012.73
2022-08-23T08:04:48.062Z,1012.77
2022-08-23T08:05:48.055Z,1012.71
2022-08-23T08:06:52.731Z,1012.70
2022-08-23T08:07:49.884Z,1012.72
2022-08-23T08:08:48.255Z,1012.72
2022-08-23T08:09:48.008Z,1012.74
2022-08-23T08:10:47.360Z,1012.79
2022-08-23T08:11:47.345Z,1012.75
2022-08-23T08:12:47.318Z,1012.77
2022-08-23T08:13:47.425Z,1012.78
2022-08-23T08:14:48.346Z,1012.77
2022-08-23T08:15:48.029Z,1012.80
2022-08-23T08:16:47.959Z,1012.80
2022-08-23T08:17:47.288Z,1012.85
2022-08-23T08:18:47.919Z,1012.83
2022-08-23T08:19:47.304Z,1012.84
2022-08-23T08:20:47.519Z,1012.85
2022-08-23T08:21:47.200Z,1012.87
2022-08-23T08:22:49.190Z,1012.87
2022-08-23T08:23:47.867Z,1012.90
2022-08-23T08:24:47.870Z,1012.88
2022-08-23T08:25:47.824Z,1012.89
2022-08-23T08:26:48.125Z,1012.89
2022-08-23T08:27:47.165Z,1012.87
2022-08-23T08:28:47.133Z,1012.88
2022-08-23T08:29:47.125Z,1012.82
2022-08-23T08:30:47.122Z,1012.82
2022-08-23T08:31:49.515Z,1012.80
2022-08-23T08:32:48.084Z,1012.82
2022-08-23T08:33:47.763Z,1012.88
2022-08-23T08:34:47.753Z,1012.83
2022-08-23T08:35:47.745Z,1012.87
2022-08-23T08:36:48.743Z,1012.90
2022-08-23T08:37:47.065Z,1012.85
2022-08-23T08:38:47.939Z,1012.81
2022-08-23T08:39:47.058Z,1012.86
2022-08-23T08:40:47.020Z,1012.85
2022-08-23T08:41:47.679Z,1012.83
2022-08-23T08:42:47.032Z,1012.85
2022-08-23T08:43:47.669Z,1012.83
2022-08-23T08:44:47.651Z,1012.79
2022-08-23T08:45:47.600Z,1012.80
2022-08-23T08:46:48.031Z,1012.82
2022-08-23T08:47:46.955Z,1012.75
2022-08-23T08:48:47.595Z,1012.73
2022-08-23T08:49:46.911Z,1012.71
2022-08-23T08:50:47.608Z,1012.67
2022-08-23T08:51:47.572Z,1012.68
2022-08-23T08:52:47.564Z,1012.68
2022-08-23T08:53:47.566Z,1012.64
2022-08-23T08:54:48.331Z,1012.68
2022-08-23T08:55:47.552Z,1012.68
2022-08-23T08:56:46.855Z,1012.68
2022-08-23T08:57:47.518Z,1012.66
2022-08-23T08:58:47.777Z,1012.68
2022-08-23T08:59:46.816Z,1012.69
2022-08-23T09:00:47.485Z,1012.68
2022-08-23T09:01:48.664Z,1012.65
2022-08-23T09:02:47.524Z,1012.70
2022-08-23T09:03:47.455Z,1012.71
2022-08-23T09:04:46.798Z,1012.72
2022-08-23T09:05:47.440Z,1012.73
2022-08-23T09:06:47.407Z,1012.74
2022-08-23T09:07:47.430Z,1012.75
2022-08-23T09:08:47.443Z,1012.74
2022-08-23T09:09:47.402Z,1012.72
2022-08-23T09:10:47.390Z,1012.76
2022-08-23T09:11:47.394Z,1012.72
2022-08-23T09:12:47.361Z,1012.76
2022-08-23T09:13:46.734Z,1012.75
2022-08-23T09:14:46.694Z,1012.75
2022-08-23T09:15:46.696Z,1012.74
2022-08-23T09:16:47.354Z,1012.74
2022-08-23T09:17:47.333Z,1012.72
2022-08-23T09:18:47.304Z,1012.69
2022-08-23T09:19:47.310Z,1012.72
2022-08-23T09:20:46.616Z,1012.72
2022-08-23T09:21:46.620Z,1012.77
2022-08-23T09:22:47.266Z,1012.77
2022-08-23T09:23:47.264Z,1012.78
2022-08-23T09:24:47.250Z,1012.74
2022-08-23T09:25:47.248Z,1012.76
2022-08-23T09:26:46.559Z,1012.72
2022-08-23T09:27:47.218Z,1012.72
2022-08-23T09:28:47.951Z,1012.73
2022-08-23T09:29:46.531Z,1012.74
2022-08-23T09:30:46.555Z,1012.74
2022-08-23T09:31:46.592Z,1012.68
2022-08-23T09:32:46.536Z,1012.70
2022-08-23T09:33:47.151Z,1012.71
2022-08-23T09:34:46.461Z,1012.71
2022-08-23T09:35:47.134Z,1012.70
2022-08-23T09:36:46.531Z,1012.70
2022-08-23T09:37:47.112Z,1012.71
2022-08-23T09:38:46.431Z,1012.67
2022-08-23T09:39:47.133Z,1012.67
2022-08-23T09:40:47.110Z,1012.66
2022-08-23T09:41:47.355Z,1012.63
2022-08-23T09:42:47.067Z,1012.63
2022-08-23T09:43:46.394Z,1012.59
2022-08-23T09:44:46.372Z,1012.62
2022-08-23T09:45:46.375Z,1012.61
2022-08-23T09:46:47.039Z,1012.64
2022-08-23T09:47:47.017Z,1012.65
2022-08-23T09:48:46.406Z,1012.67
2022-08-23T09:49:46.333Z,1012.67
2022-08-23T09:50:46.307Z,1012.65
2022-08-23T09:51:46.981Z,1012.67
2022-08-23T09:52:46.959Z,1012.63
2022-08-23T09:53:46.963Z,1012.60
2022-08-23T09:54:47.672Z,1012.61
2022-08-23T09:55:46.931Z,1012.61
2022-08-23T09:56:46.230Z,1012.61
2022-08-23T09:57:46.264Z,1012.59
2022-08-23T09:58:46.919Z,1012.61
2022-08-23T09:59:46.902Z,1012.62
2022-08-23T10:00:46.873Z,1012.60
2022-08-23T10:01:46.894Z,1012.59
2022-08-23T10:02:46.863Z,1012.64
2022-08-23T10:03:46.226Z,1012.63
2022-08-23T10:04:46.922Z,1012.60
2022-08-23T10:05:46.834Z,1012.65
2022-08-23T10:06:46.243Z,1012.69
2022-08-23T10:07:46.825Z,1012.68
2022-08-23T10:08:46.172Z,1012.64
2022-08-23T10:09:46.807Z,1012.65
2022-08-23T10:10:46.115Z,1012.59
2022-08-23T10:11:46.773Z,1012.59
2022-08-23T10:12:46.870Z,1012.53
2022-08-23T10:13:46.074Z,1012.57
2022-08-23T10:14:46.065Z,1012.57
2022-08-23T10:15:46.113Z,1012.57
2022-08-23T10:16:46.044Z,1012.58
2022-08-23T10:17:46.718Z,1012.61
2022-08-23T10:18:48.402Z,1012.50
2022-08-23T10:19:47.881Z,1012.55
2022-08-23T10:20:46.689Z,1012.54
2022-08-23T10:21:46.680Z,1012.57
2022-08-23T10:22:46.672Z,1012.59
2022-08-23T10:23:46.653Z,1012.59
2022-08-23T10:24:46.651Z,1012.57
2022-08-23T10:25:45.958Z,1012.61
2022-08-23T10:26:45.955Z,1012.61
2022-08-23T10:27:45.934Z,1012.57
2022-08-23T10:28:46.615Z,1012.58
2022-08-23T10:29:45.953Z,1012.57
2022-08-23T10:30:46.624Z,1012.59
2022-08-23T10:31:46.581Z,1012.57
2022-08-23T10:32:45.886Z,1012.55
2022-08-23T10:33:46.558Z,1012.53
2022-08-23T10:34:50.438Z,1012.52
2022-08-23T10:35:45.927Z,1012.51
2022-08-23T10:36:45.928Z,1012.52
2022-08-23T10:37:48.740Z,1012.47
2022-08-23T10:38:45.818Z,1012.48
2022-08-23T10:39:48.312Z,1012.49
2022-08-23T10:40:46.490Z,1012.48
2022-08-23T10:41:45.798Z,1012.50
2022-08-23T10:42:46.767Z,1012.53
2022-08-23T10:43:46.468Z,1012.52
2022-08-23T10:44:45.788Z,1012.45
2022-08-23T10:45:45.755Z,1012.46
2022-08-23T10:46:45.773Z,1012.39
2022-08-23T10:47:45.748Z,1012.39
2022-08-23T10:48:45.771Z,1012.39
2022-08-23T10:49:45.769Z,1012.40
2022-08-23T10:50:45.702Z,1012.38
2022-08-23T10:51:47.371Z,1012.43
2022-08-23T10:52:45.683Z,1012.43
2022-08-23T10:53:46.356Z,1012.40
2022-08-23T10:54:45.709Z,1012.42
2022-08-23T10:55:45.654Z,1012.37
2022-08-23T10:56:51.214Z,1012.36
2022-08-23T10:57:48.069Z,1012.36
2022-08-23T10:58:47.553Z,1012.36
2022-08-23T10:59:48.431Z,1012.36
2022-08-23T11:00:45.637Z,1012.34
2022-08-23T11:01:45.687Z,1012.32
2022-08-23T11:02:46.283Z,1012.34
2022-08-23T11:03:46.248Z,1012.33
2022-08-23T11:04:46.240Z,1012.34
2022-08-23T11:05:46.229Z,1012.37
2022-08-23T11:06:45.576Z,1012.32
2022-08-23T11:07:45.547Z,1012.24
2022-08-23T11:08:47.973Z,1012.29
2022-08-23T11:09:45.509Z,1012.27
2022-08-23T11:10:56.134Z,1012.24
2022-08-23T11:11:49.349Z,1012.23
2022-08-23T11:12:45.498Z,1012.19
2022-08-23T11:13:45.463Z,1012.17
2022-08-23T11:14:46.143Z,1012.24
2022-08-23T11:15:47.436Z,1012.24
2022-08-23T11:16:46.104Z,1012.24
2022-08-23T11:17:45.474Z,1012.22
2022-08-23T11:18:46.099Z,1012.23
2022-08-23T11:19:45.405Z,1012.21
2022-08-23T11:20:45.404Z,1012.15
2022-08-23T11:21:46.066Z,1012.19
2022-08-23T11:22:45.394Z,1012.21
2022-08-23T11:23:45.437Z,1012.14
2022-08-23T11:24:45.346Z,1012.14
2022-08-23T11:25:45.360Z,1012.17
2022-08-23T11:26:45.348Z,1012.18
2022-08-23T11:27:45.317Z,1012.17
2022-08-23T11:28:45.988Z,1012.13
2022-08-23T11:29:45.987Z,1012.17
2022-08-23T11:30:45.345Z,1012.17
2022-08-23T11:31:45.958Z,1012.13
2022-08-23T11:32:45.289Z,1012.11
2022-08-23T11:33:45.264Z,1012.18
2022-08-23T11:34:45.929Z,1012.16
2022-08-23T11:35:45.320Z,1012.16
2022-08-23T11:36:45.214Z,1012.14
2022-08-23T11:37:45.285Z,1012.19
2022-08-23T11:38:45.204Z,1012.13
2022-08-23T11:39:45.915Z,1012.11
2022-08-23T11:40:45.192Z,1012.12
2022-08-23T11:41:45.870Z,1012.10
2022-08-23T11:42:45.152Z,1012.22
2022-08-23T11:43:45.161Z,1012.19
2022-08-23T11:44:45.823Z,1012.20
2022-08-23T11:45:45.137Z,1012.12
2022-08-23T11:46:45.801Z,1012.14
2022-08-23T11:47:45.815Z,1012.18
2022-08-23T11:48:45.096Z,1012.16
2022-08-23T11:49:45.110Z,1012.15
2022-08-23T11:50:45.081Z,1012.18
2022-08-23T11:51:45.754Z,1012.12
2022-08-23T11:52:45.045Z,1012.10
2022-08-23T11:53:45.736Z,1012.12
2022-08-23T11:54:45.036Z,1012.13
2022-08-23T11:55:45.029Z,1012.15
2022-08-23T11:56:46.426Z,1012.10
2022-08-23T11:57:45.020Z,1012.08
2022-08-23T11:58:44.989Z,1012.09
2022-08-23T11:59:45.032Z,1012.06
2022-08-23T12:00:44.980Z,1012.07
2022-08-23T12:01:45.657Z,1012.06
2022-08-23T12:02:45.064Z,1012.05
2022-08-23T12:03:46.084Z,1012.06
2022-08-23T12:04:45.623Z,1012.00
2022-08-23T12:05:45.612Z,1012.06
2022-08-23T12:06:51.133Z,1012.04